Time;durP1;ratioP1;P1;durP2;ratioP2;P2;SDS_P1;SDS_P2;PMS_P1;PMS_P2;Temp;Humidity;BMP_temperature;BMP_pressure;BME280_temperature;BME280_humidity;BME280_pressure;Samples;Min_cycle;Max_cycle;Signal;HPM_P1;HPM_P2
2022/04/12 00:00:21;;;;;;;5.97;4.70;;;7.50;99.90;;;;;;5079915;28;20378;-78
2022/04/12 00:03:07;;;;;;;10.63;5.67;;;7.60;99.90;;;;;;5079854;28;20458;-80
2022/04/12 00:05:51;;;;;;;6.07;4.30;;;7.80;99.90;;;;;;5078968;28;20401;-83
2022/04/12 00:08:36;;;;;;;5.77;5.17;;;7.90;99.90;;;;;;5079560;28;20381;-81
2022/04/12 00:11:21;;;;;;;6.70;5.17;;;8.00;99.90;;;;;;5079432;28;20484;-80
2022/04/12 00:14:05;;;;;;;7.20;5.07;;;7.90;99.90;;;;;;5079964;28;20467;-82
2022/04/12 00:19:02;;;;;;;6.43;5.37;;;8.00;99.90;;;;;;5099208;28;20604;-82
2022/04/12 00:19:56;;;;;;;7.10;5.40;;;8.10;99.90;;;;;;5095200;28;20424;-82
2022/04/12 00:22:40;;;;;;;6.60;5.13;;;8.00;99.90;;;;;;5086388;28;20417;-81
2022/04/12 00:25:27;;;;;;;6.03;5.53;;;8.00;99.90;;;;;;5087420;28;20493;-83
2022/04/12 00:28:13;;;;;;;9.83;4.63;;;8.00;99.90;;;;;;5070843;28;20424;-84
2022/04/12 00:30:58;;;;;;;9.10;5.57;;;8.00;99.90;;;;;;5086462;28;20448;-83
2022/04/12 00:33:42;;;;;;;8.20;5.63;;;7.90;99.90;;;;;;5086584;28;20377;-83
2022/04/12 00:36:27;;;;;;;5.70;4.90;;;7.80;99.90;;;;;;5070999;28;20413;-83
2022/04/12 00:39:12;;;;;;;6.90;6.03;;;7.90;99.90;;;;;;5071093;28;20390;-83
2022/04/12 00:41:57;;;;;;;6.13;5.00;;;8.00;99.90;;;;;;5086515;28;20893;-83
2022/04/12 00:44:41;;;;;;;4.90;4.40;;;8.00;99.90;;;;;;5078162;28;20447;-82
2022/04/12 00:47:26;;;;;;;5.73;5.10;;;7.90;99.90;;;;;;5077060;28;20476;-83
2022/04/12 00:50:12;;;;;;;6.33;5.20;;;7.90;99.90;;;;;;5093256;28;20424;-81
2022/04/12 00:52:58;;;;;;;6.10;5.50;;;7.90;99.90;;;;;;5093919;28;20464;-81
2022/04/12 00:55:44;;;;;;;7.27;6.10;;;7.80;99.90;;;;;;5087439;28;20823;-83
2022/04/12 00:58:29;;;;;;;6.07;5.13;;;7.70;99.90;;;;;;5088274;28;20456;-83
2022/04/12 01:01:14;;;;;;;6.23;5.10;;;7.70;99.90;;;;;;5087752;28;20381;-84
2022/04/12 01:03:59;;;;;;;6.77;5.87;;;7.70;99.90;;;;;;5090424;28;20443;-82
2022/04/12 01:06:44;;;;;;;15.00;5.73;;;7.60;99.90;;;;;;5092670;28;20450;-83
2022/04/12 01:09:29;;;;;;;6.87;5.20;;;7.50;99.90;;;;;;5092144;28;20389;-83
2022/04/12 01:12:18;;;;;;;8.53;5.23;;;7.60;99.90;;;;;;5090333;28;20504;-84
2022/04/12 01:15:22;;;;;;;6.43;4.43;;;7.50;99.90;;;;;;5091336;28;20401;-83
2022/04/12 01:18:06;;;;;;;6.23;5.60;;;7.40;99.90;;;;;;5092901;28;20453;-82
2022/04/12 01:20:51;;;;;;;6.40;5.10;;;7.40;99.90;;;;;;5077745;28;20389;-82
2022/04/12 01:23:54;;;;;;;7.97;4.37;;;7.40;99.90;;;;;;5091569;28;20404;-83
2022/04/12 01:26:40;;;;;;;8.17;5.17;;;7.40;99.90;;;;;;5103407;28;20415;-83
2022/04/12 01:29:25;;;;;;;8.00;6.30;;;7.20;99.90;;;;;;5092029;28;20407;-83
2022/04/12 01:32:10;;;;;;;8.40;6.73;;;7.30;99.90;;;;;;5097668;28;20463;-83
2022/04/12 01:34:54;;;;;;;6.10;5.00;;;7.30;99.90;;;;;;5089109;28;20401;-82
2022/04/12 01:37:39;;;;;;;6.67;5.10;;;7.40;99.90;;;;;;5084844;28;20397;-82
2022/04/12 01:40:24;;;;;;;8.87;6.20;;;7.30;99.90;;;;;;5084575;28;20381;-82
2022/04/12 01:43:11;;;;;;;8.27;5.30;;;7.30;99.90;;;;;;5083806;28;20734;-82
2022/04/12 01:45:55;;;;;;;9.67;5.77;;;7.30;99.90;;;;;;5054135;28;20908;-83
2022/04/12 01:48:40;;;;;;;6.43;5.80;;;7.30;99.90;;;;;;5067904;28;20417;-82
2022/04/12 01:51:24;;;;;;;6.40;5.07;;;7.30;99.90;;;;;;5083584;28;20452;-83
2022/04/12 01:54:10;;;;;;;9.80;5.87;;;7.40;99.90;;;;;;5068067;28;20854;-83
2022/04/12 01:56:54;;;;;;;6.40;5.80;;;7.40;99.90;;;;;;5084383;28;20385;-82
2022/04/12 01:59:39;;;;;;;5.57;4.57;;;7.30;99.90;;;;;;5085029;28;20428;-82
2022/04/12 02:02:23;;;;;;;11.87;5.83;;;7.10;99.90;;;;;;5085823;28;20556;-82
2022/04/12 02:05:08;;;;;;;7.30;5.20;;;7.20;99.90;;;;;;5086637;28;20388;-83
2022/04/12 02:07:53;;;;;;;5.13;4.63;;;7.30;99.90;;;;;;5085862;28;20388;-83
2022/04/12 02:10:37;;;;;;;8.57;5.90;;;7.20;99.90;;;;;;5083643;28;20380;-82
2022/04/12 02:13:22;;;;;;;5.23;4.43;;;7.10;99.90;;;;;;5063690;28;20398;-82
2022/04/12 02:16:07;;;;;;;5.70;4.40;;;7.00;99.90;;;;;;5063405;28;20391;-83
2022/04/12 02:18:51;;;;;;;14.33;4.13;;;7.00;99.90;;;;;;5063294;28;20382;-83
2022/04/12 02:21:36;;;;;;;5.20;4.70;;;7.00;99.90;;;;;;5062630;28;20456;-83
2022/04/12 02:24:20;;;;;;;26.83;5.37;;;7.10;99.90;;;;;;5062738;28;20490;-81
2022/04/12 02:27:05;;;;;;;7.80;4.20;;;7.00;99.90;;;;;;5048274;28;20394;-82
2022/04/12 02:29:49;;;;;;;7.23;5.23;;;6.90;99.90;;;;;;5062932;28;20398;-83
2022/04/12 02:32:34;;;;;;;6.80;4.90;;;6.90;99.90;;;;;;5063389;28;20449;-82
2022/04/12 02:35:19;;;;;;;8.30;5.67;;;6.90;99.90;;;;;;5063670;28;20390;-81
2022/04/12 02:38:04;;;;;;;5.53;4.57;;;6.80;99.90;;;;;;5065412;28;20843;-82
2022/04/12 02:40:49;;;;;;;7.00;5.40;;;6.90;99.90;;;;;;5070128;28;20397;-81
2022/04/12 02:43:34;;;;;;;5.70;5.03;;;6.80;99.90;;;;;;5067179;28;20882;-83
2022/04/12 02:46:18;;;;;;;8.57;5.47;;;6.80;99.90;;;;;;5066365;28;20939;-82
2022/04/12 02:49:03;;;;;;;6.23;5.30;;;6.80;99.90;;;;;;5066780;28;20396;-81
2022/04/12 02:51:47;;;;;;;6.13;5.00;;;6.80;99.90;;;;;;5066719;28;20448;-82
2022/04/12 02:54:32;;;;;;;8.83;4.73;;;6.80;99.90;;;;;;5066899;28;20382;-82
2022/04/12 02:57:18;;;;;;;7.37;4.83;;;6.60;99.90;;;;;;5051396;28;20382;-82
2022/04/12 03:00:04;;;;;;;6.77;6.07;;;6.20;99.90;;;;;;5066772;28;20386;-81
2022/04/12 03:02:49;;;;;;;5.10;4.43;;;6.10;99.90;;;;;;5066424;28;20386;-80
2022/04/12 03:05:34;;;;;;;5.60;4.80;;;6.30;99.90;;;;;;5067125;28;20413;-82
2022/04/12 03:08:18;;;;;;;6.30;5.70;;;6.40;99.90;;;;;;5065931;28;20406;-83
2022/04/12 03:11:04;;;;;;;7.13;4.30;;;6.40;99.90;;;;;;5067717;28;20492;-82
2022/04/12 03:13:49;;;;;;;8.17;5.17;;;6.50;99.90;;;;;;5086856;28;20417;-83
2022/04/12 03:16:33;;;;;;;8.23;4.10;;;6.50;99.90;;;;;;5071227;28;20455;-84
2022/04/12 03:19:18;;;;;;;5.63;4.80;;;6.30;99.90;;;;;;5085876;28;20446;-82
2022/04/12 03:22:04;;;;;;;4.50;4.07;;;6.30;99.90;;;;;;5083745;28;20432;-82
2022/04/12 03:24:48;;;;;;;11.13;4.80;;;6.20;99.90;;;;;;5085271;28;20457;-82
2022/04/12 03:27:33;;;;;;;4.90;3.70;;;6.30;99.90;;;;;;5086436;28;20405;-81
2022/04/12 03:30:19;;;;;;;5.70;4.50;;;6.30;99.90;;;;;;5086260;28;20755;-83
2022/04/12 03:33:03;;;;;;;4.17;3.70;;;6.30;99.90;;;;;;5085756;28;20468;-82
2022/04/12 03:35:49;;;;;;;16.13;5.73;;;6.20;99.90;;;;;;5071340;28;20397;-82
2022/04/12 03:38:35;;;;;;;5.20;4.70;;;6.20;99.90;;;;;;5086502;28;20400;-82
2022/04/12 03:41:22;;;;;;;3.70;3.40;;;6.30;99.90;;;;;;5085659;28;20805;-81
2022/04/12 03:44:07;;;;;;;3.63;3.43;;;6.30;99.90;;;;;;5086286;28;20409;-81
2022/04/12 03:46:52;;;;;;;4.77;4.40;;;6.20;99.90;;;;;;5083157;28;20417;-82
2022/04/12 03:49:36;;;;;;;5.23;4.33;;;6.20;99.90;;;;;;5084241;28;20404;-82
2022/04/12 03:52:21;;;;;;;5.47;5.03;;;6.20;99.90;;;;;;5085416;28;20455;-82
2022/04/12 03:55:10;;;;;;;5.60;4.20;;;6.20;99.90;;;;;;5070033;28;20799;-82
2022/04/12 03:57:54;;;;;;;5.03;4.47;;;6.20;99.90;;;;;;5084278;28;20400;-82
2022/04/12 04:00:39;;;;;;;6.77;4.80;;;6.10;99.90;;;;;;5085393;28;20393;-82
2022/04/12 04:03:24;;;;;;;5.27;4.00;;;6.10;99.90;;;;;;5085354;28;20386;-82
2022/04/12 04:06:11;;;;;;;5.30;4.10;;;6.10;99.90;;;;;;5085182;28;20411;-82
2022/04/12 04:08:55;;;;;;;5.07;4.20;;;6.00;99.90;;;;;;5069864;28;20381;-82
2022/04/12 04:11:42;;;;;;;5.20;4.50;;;6.00;99.90;;;;;;5084890;28;20464;-82
2022/04/12 04:14:28;;;;;;;5.93;4.57;;;6.00;99.90;;;;;;5085122;28;20381;-82
2022/04/12 04:17:12;;;;;;;4.40;4.00;;;6.00;99.90;;;;;;5085242;28;20381;-82
2022/04/12 04:19:57;;;;;;;4.20;3.80;;;6.10;99.90;;;;;;5085516;28;20461;-82
2022/04/12 04:22:42;;;;;;;5.13;4.63;;;6.10;99.90;;;;;;5085523;28;20385;-82
2022/04/12 04:25:28;;;;;;;7.47;4.30;;;5.90;99.90;;;;;;5070007;28;20442;-82
2022/04/12 04:28:12;;;;;;;5.67;4.87;;;6.00;99.90;;;;;;5085059;28;20439;-83
2022/04/12 04:30:57;;;;;;;7.60;5.83;;;6.00;99.90;;;;;;5085945;28;20385;-82
2022/04/12 04:33:41;;;;;;;5.63;4.67;;;6.00;99.90;;;;;;5085645;28;20446;-83
2022/04/12 04:36:27;;;;;;;7.63;4.30;;;6.00;99.90;;;;;;5070614;28;20375;-82
2022/04/12 04:39:12;;;;;;;5.87;4.20;;;6.00;99.90;;;;;;5084840;28;20409;-83
2022/04/12 04:41:56;;;;;;;6.30;4.40;;;5.80;99.90;;;;;;5057254;28;20381;-82
2022/04/12 04:44:42;;;;;;;10.07;3.97;;;5.80;99.90;;;;;;5065665;28;20447;-83
2022/04/12 04:47:26;;;;;;;7.63;5.43;;;5.70;99.90;;;;;;5051472;28;20425;-82
2022/04/12 04:50:13;;;;;;;4.73;4.33;;;5.50;99.90;;;;;;5067199;28;20446;-81
2022/04/12 04:53:00;;;;;;;5.13;4.63;;;5.60;99.90;;;;;;5061368;28;20428;-79
2022/04/12 04:55:44;;;;;;;9.93;4.97;;;5.50;99.90;;;;;;5075298;28;20524;-80
2022/04/12 04:58:29;;;;;;;5.17;4.67;;;5.30;99.90;;;;;;5069425;28;20425;-81
2022/04/12 05:01:14;;;;;;;4.90;4.30;;;5.50;99.90;;;;;;5064614;28;20493;-83
2022/04/12 05:03:58;;;;;;;7.75;5.22;;;5.60;99.90;;;;;;5063389;28;20465;-81
2022/04/12 05:06:43;;;;;;;5.30;4.80;;;5.70;99.90;;;;;;5063144;28;20700;-81
2022/04/12 05:09:27;;;;;;;4.53;4.13;;;5.90;99.90;;;;;;5066005;28;20389;-81
2022/04/12 05:12:12;;;;;;;10.10;5.27;;;6.00;99.90;;;;;;5067300;28;20465;-82
2022/04/12 05:14:56;;;;;;;11.07;4.50;;;6.00;99.90;;;;;;5064194;28;20409;-81
2022/04/12 05:17:47;;;;;;;15.13;4.43;;;6.00;99.90;;;;;;5063874;28;20409;-82
2022/04/12 05:20:32;;;;;;;7.07;5.10;;;5.90;99.90;;;;;;5070659;28;20412;-82
2022/04/12 05:23:16;;;;;;;6.30;4.80;;;6.00;99.90;;;;;;5085664;28;20517;-82
2022/04/12 05:26:00;;;;;;;5.67;5.07;;;5.90;99.90;;;;;;5071517;28;20444;-81
2022/04/12 05:28:45;;;;;;;7.67;5.30;;;6.00;99.90;;;;;;5076343;28;20417;-81
2022/04/12 05:31:29;;;;;;;5.50;4.83;;;6.10;99.90;;;;;;5083545;28;20905;-81
2022/04/12 05:34:14;;;;;;;6.70;4.87;;;6.30;99.90;;;;;;5056639;28;20429;-82
2022/04/12 05:36:59;;;;;;;6.70;4.57;;;6.30;99.90;;;;;;5065396;28;20386;-81
2022/04/12 05:39:43;;;;;;;4.10;3.80;;;6.40;99.90;;;;;;5089478;28;20404;-81
2022/04/12 05:42:30;;;;;;;5.10;4.60;;;6.50;99.90;;;;;;5049426;28;20487;-82
2022/04/12 05:45:15;;;;;;;6.03;5.07;;;6.60;99.90;;;;;;5070870;28;20484;-82
2022/04/12 05:48:00;;;;;;;7.37;5.13;;;6.50;99.90;;;;;;5083591;28;20389;-81
2022/04/12 05:50:44;;;;;;;4.83;4.43;;;6.70;99.90;;;;;;5079047;28;20412;-82
2022/04/12 05:53:29;;;;;;;5.20;4.70;;;6.90;99.90;;;;;;5073213;28;20877;-81
2022/04/12 05:56:14;;;;;;;7.07;4.80;;;6.30;99.90;;;;;;5057209;28;20480;-81
2022/04/12 05:58:58;;;;;;;10.53;5.70;;;6.00;99.90;;;;;;5076315;28;20967;-82
2022/04/12 06:01:43;;;;;;;8.10;5.40;;;6.50;99.90;;;;;;5079791;28;20408;-81
2022/04/12 06:04:28;;;;;;;7.93;5.27;;;6.70;99.90;;;;;;5074217;28;20420;-81
2022/04/12 06:07:14;;;;;;;7.10;4.77;;;6.90;99.90;;;;;;5069065;28;20468;-81
2022/04/12 06:10:02;;;;;;;11.50;5.50;;;7.00;99.90;;;;;;5084161;28;20767;-82
2022/04/12 06:12:47;;;;;;;3.97;3.67;;;7.20;99.90;;;;;;5085108;28;20499;-82
2022/04/12 06:15:33;;;;;;;6.87;4.90;;;7.20;99.90;;;;;;5087451;28;20436;-81
2022/04/12 06:18:17;;;;;;;6.83;4.87;;;7.30;99.90;;;;;;5085239;28;20519;-82
2022/04/12 06:21:02;;;;;;;6.23;5.33;;;7.40;99.90;;;;;;5078767;28;20467;-80
2022/04/12 06:23:47;;;;;;;6.00;4.60;;;7.50;99.90;;;;;;5082604;28;20798;-81
2022/04/12 06:26:31;;;;;;;9.07;5.33;;;7.60;99.90;;;;;;5080380;28;20426;-81
2022/04/12 06:29:15;;;;;;;9.43;5.27;;;7.60;99.90;;;;;;5080588;28;20465;-81
2022/04/12 06:32:02;;;;;;;5.20;4.70;;;7.70;99.90;;;;;;5079142;28;20475;-81
2022/04/12 06:34:46;;;;;;;6.50;5.90;;;7.60;99.90;;;;;;5076358;28;20963;-81
2022/04/12 06:37:33;;;;;;;5.27;4.70;;;7.50;99.90;;;;;;5081596;28;20451;-82
2022/04/12 06:40:19;;;;;;;6.07;5.57;;;7.30;99.90;;;;;;5072116;28;20415;-82
2022/04/12 06:43:04;;;;;;;5.73;5.23;;;7.30;99.90;;;;;;5073226;28;20594;-81
2022/04/12 06:45:49;;;;;;;6.10;5.10;;;7.50;99.90;;;;;;5074443;28;20432;-82
2022/04/12 06:48:33;;;;;;;7.77;6.43;;;7.70;99.90;;;;;;5075709;28;20481;-82
2022/04/12 06:51:18;;;;;;;10.93;6.07;;;8.00;99.90;;;;;;5075789;28;20468;-82
2022/04/12 06:54:03;;;;;;;6.03;5.20;;;8.10;99.90;;;;;;5077351;28;20448;-81
2022/04/12 06:56:47;;;;;;;10.87;6.83;;;8.40;99.90;;;;;;5078136;28;20463;-82
2022/04/12 06:59:32;;;;;;;9.40;5.53;;;8.60;99.90;;;;;;5074270;28;20508;-81
2022/04/12 07:02:17;;;;;;;9.20;5.90;;;8.70;99.90;;;;;;5067042;28;20525;-81
2022/04/12 07:05:03;;;;;;;4.77;4.37;;;8.90;99.90;;;;;;5081667;28;20470;-82
2022/04/12 07:07:48;;;;;;;6.50;5.10;;;8.90;99.90;;;;;;5067486;28;20435;-80
2022/04/12 07:10:33;;;;;;;6.60;6.00;;;8.90;99.90;;;;;;5077646;28;20482;-83
2022/04/12 07:13:19;;;;;;;6.33;5.73;;;9.10;99.90;;;;;;5063354;28;20444;-81
2022/04/12 07:16:04;;;;;;;6.40;5.80;;;9.20;99.90;;;;;;5077295;28;20432;-82
2022/04/12 07:18:48;;;;;;;14.43;4.80;;;9.20;99.90;;;;;;5078729;28;20440;-81
2022/04/12 07:21:33;;;;;;;5.53;4.63;;;9.40;99.90;;;;;;5075060;28;20482;-82
2022/04/12 07:24:18;;;;;;;8.63;4.73;;;9.60;99.90;;;;;;5068358;28;20450;-81
2022/04/12 07:27:03;;;;;;;6.77;4.73;;;9.60;99.90;;;;;;5061759;28;20472;-82
2022/04/12 07:29:48;;;;;;;5.70;5.20;;;9.70;99.90;;;;;;5074273;28;20428;-82
2022/04/12 07:32:32;;;;;;;7.57;5.27;;;9.80;99.90;;;;;;5076986;28;20512;-82
2022/04/12 07:35:17;;;;;;;10.07;4.10;;;9.70;99.90;;;;;;5064598;28;20464;-82
2022/04/12 07:38:02;;;;;;;6.65;5.40;;;9.80;99.90;;;;;;5071585;28;20434;-82
2022/04/12 07:40:46;;;;;;;4.57;4.07;;;10.00;99.90;;;;;;5073678;28;20174;-82
2022/04/12 07:43:31;;;;;;;6.87;4.87;;;10.20;99.90;;;;;;5071636;28;20785;-82
2022/04/12 07:46:16;;;;;;;9.90;5.57;;;10.30;99.90;;;;;;5063876;28;20752;-82
2022/04/12 07:49:00;;;;;;;8.93;5.63;;;10.50;99.90;;;;;;5066827;28;20412;-81
2022/04/12 07:51:46;;;;;;;6.63;5.30;;;10.30;99.90;;;;;;5060285;28;22007;-82
2022/04/12 07:54:31;;;;;;;10.55;6.03;;;10.40;99.90;;;;;;5075019;28;20429;-82
2022/04/12 07:57:15;;;;;;;11.20;6.43;;;10.60;99.90;;;;;;5076574;28;20271;-82
2022/04/12 08:00:00;;;;;;;5.50;4.80;;;10.80;99.90;;;;;;5053926;28;20498;-81
2022/04/12 08:02:45;;;;;;;8.02;5.28;;;10.90;99.90;;;;;;5070950;28;20729;-82
2022/04/12 08:05:30;;;;;;;5.20;4.77;;;11.10;99.90;;;;;;5073288;28;20209;-81
2022/04/12 08:08:15;;;;;;;5.70;5.00;;;11.00;99.90;;;;;;5058058;28;20428;-80
2022/04/12 08:11:00;;;;;;;6.10;4.80;;;11.50;99.90;;;;;;5069891;28;20443;-80
2022/04/12 08:13:45;;;;;;;16.57;5.07;;;11.60;99.90;;;;;;5083025;28;20441;-80
2022/04/12 08:16:30;;;;;;;9.33;4.87;;;11.80;99.90;;;;;;5085656;28;20428;-80
2022/04/12 08:19:15;;;;;;;7.67;4.37;;;11.60;99.90;;;;;;5073033;28;20505;-81
2022/04/12 08:22:01;;;;;;;10.03;4.47;;;11.40;99.90;;;;;;5065807;28;20831;-82
2022/04/12 08:24:46;;;;;;;4.67;3.10;;;11.40;99.90;;;;;;5072567;28;20420;-81
2022/04/12 08:27:30;;;;;;;6.03;3.80;;;11.50;99.90;;;;;;5065447;28;20428;-81
2022/04/12 08:30:15;;;;;;;4.63;3.20;;;11.60;99.90;;;;;;5064820;28;20554;-82
2022/04/12 08:33:01;;;;;;;4.60;4.00;;;11.80;99.90;;;;;;5053573;28;21173;-81
2022/04/12 08:35:46;;;;;;;5.28;3.45;;;11.90;99.90;;;;;;5056171;28;20443;-81
2022/04/12 08:38:31;;;;;;;3.77;3.33;;;12.10;99.90;;;;;;5062936;28;20239;-80
2022/04/12 08:41:17;;;;;;;6.63;3.50;;;12.30;99.90;;;;;;5074791;28;20521;-80
2022/04/12 08:44:01;;;;;;;3.20;2.90;;;12.40;99.90;;;;;;5054782;28;21173;-80
2022/04/12 08:46:47;;;;;;;2.70;2.50;;;12.60;99.90;;;;;;5060663;28;20420;-81
2022/04/12 08:49:34;;;;;;;16.10;3.70;;;12.90;99.90;;;;;;5052291;28;20429;-81
2022/04/12 08:52:21;;;;;;;3.08;2.78;;;13.10;99.90;;;;;;5061946;28;20589;-81
2022/04/12 08:55:08;;;;;;;4.40;4.00;;;13.30;99.90;;;;;;5051157;28;20265;-80
2022/04/12 08:57:52;;;;;;;2.60;2.10;;;13.20;99.90;;;;;;5064669;28;20418;-81
2022/04/12 09:00:37;;;;;;;2.97;2.67;;;13.30;99.90;;;;;;5062901;28;20504;-81
2022/04/12 09:03:22;;;;;;;4.20;2.50;;;13.50;99.90;;;;;;5067134;28;20500;-80
2022/04/12 09:06:10;;;;;;;3.23;2.50;;;13.60;99.90;;;;;;5048642;28;20429;-81
2022/04/12 09:08:55;;;;;;;2.90;2.37;;;13.80;98.80;;;;;;5064586;28;20436;-79
2022/04/12 09:11:41;;;;;;;3.77;2.40;;;13.90;99.00;;;;;;5054086;28;20491;-81
2022/04/12 09:14:37;;;;;;;2.20;2.00;;;14.20;95.30;;;;;;5053374;28;20439;-81
2022/04/12 09:17:31;;;;;;;3.28;2.38;;;14.40;95.50;;;;;;5048248;28;20463;-82
2022/04/12 09:20:19;;;;;;;2.30;2.10;;;14.80;94.80;;;;;;5075772;28;20179;-81
2022/04/12 09:23:14;;;;;;;3.20;2.47;;;14.40;90.30;;;;;;5065125;28;20562;-80
2022/04/12 09:25:59;;;;;;;2.73;2.07;;;14.90;91.00;;;;;;5042904;28;20429;-80
2022/04/12 09:28:44;;;;;;;1.90;1.70;;;14.70;86.10;;;;;;5068900;28;20479;-79
2022/04/12 09:31:28;;;;;;;2.43;1.93;;;15.10;87.00;;;;;;5053178;28;21042;-82
2022/04/12 09:34:13;;;;;;;2.80;2.23;;;15.20;83.70;;;;;;5048876;28;20463;-82
2022/04/12 09:36:58;;;;;;;2.23;1.80;;;15.40;89.70;;;;;;5052848;28;20498;-82
2022/04/12 09:40:02;;;;;;;6.67;3.10;;;15.50;78.00;;;;;;5065645;28;20522;-81
2022/04/12 09:42:50;;;;;;;3.70;1.80;;;15.50;80.50;;;;;;5067072;28;20948;-81
2022/04/12 09:45:34;;;;;;;5.00;2.03;;;15.70;75.40;;;;;;5048985;28;20430;-80
2022/04/12 09:48:34;;;;;;;2.27;1.80;;;16.00;74.00;;;;;;5066357;28;20425;-79
2022/04/12 09:51:21;;;;;;;3.23;1.90;;;15.90;72.30;;;;;;5052455;28;20464;-80
2022/04/12 09:54:07;;;;;;;2.30;1.70;;;15.90;70.30;;;;;;5061058;28;20449;-82
2022/04/12 09:56:56;;;;;;;2.90;2.47;;;15.90;70.50;;;;;;5058699;28;20460;-81
2022/04/12 09:59:42;;;;;;;10.17;6.03;;;15.90;66.00;;;;;;5060779;28;20430;-81
2022/04/12 10:02:27;;;;;;;4.83;2.13;;;16.40;65.50;;;;;;5068843;28;20440;-79
2022/04/12 10:05:13;;;;;;;2.10;1.90;;;16.40;65.90;;;;;;5060890;28;20788;-80
2022/04/12 10:07:59;;;;;;;2.60;1.83;;;16.50;62.10;;;;;;5045161;28;20437;-81
2022/04/12 10:10:44;;;;;;;2.03;1.93;;;16.60;63.40;;;;;;5065683;28;20546;-80
2022/04/12 10:13:29;;;;;;;1.97;1.70;;;16.80;63.80;;;;;;5063813;28;20433;-81
2022/04/12 10:16:16;;;;;;;2.90;1.87;;;16.90;63.10;;;;;;5064756;28;20429;-80
2022/04/12 10:19:02;;;;;;;2.43;2.20;;;16.70;63.10;;;;;;5066411;28;20434;-81
2022/04/12 10:21:46;;;;;;;2.90;1.60;;;17.50;64.40;;;;;;5047625;28;20476;-80
2022/04/12 10:24:33;;;;;;;3.07;1.80;;;17.20;60.50;;;;;;5054153;28;20428;-81
2022/04/12 10:27:22;;;;;;;3.30;2.10;;;17.30;58.90;;;;;;5040915;28;20486;-79
2022/04/12 10:30:25;;;;;;;2.60;2.40;;;17.10;59.60;;;;;;5067662;28;20420;-80
2022/04/12 10:33:27;;;;;;;2.97;1.93;;;16.70;60.70;;;;;;5065744;28;20464;-81
2022/04/12 10:36:11;;;;;;;5.30;3.00;;;16.70;58.30;;;;;;5047804;28;20443;-81
2022/04/12 10:38:56;;;;;;;9.83;8.73;;;16.80;57.30;;;;;;5056258;28;20429;-81
2022/04/12 10:41:42;;;;;;;4.30;2.87;;;17.30;57.60;;;;;;5080626;28;20436;-81
2022/04/12 10:44:27;;;;;;;4.07;2.20;;;17.90;57.00;;;;;;5058967;28;20512;-82
2022/04/12 10:47:25;;;;;;;2.33;1.93;;;18.60;56.90;;;;;;5059328;28;20190;-81
2022/04/12 10:50:11;;;;;;;2.00;1.87;;;19.10;55.90;;;;;;5071417;28;20986;-80
2022/04/12 10:52:56;;;;;;;3.60;2.30;;;19.50;53.90;;;;;;5055298;28;20782;-82
2022/04/12 10:55:43;;;;;;;4.00;2.73;;;19.60;53.80;;;;;;5049834;28;20562;-83
2022/04/12 10:58:30;;;;;;;3.80;1.90;;;19.50;52.90;;;;;;5046498;28;20682;-82
2022/04/12 11:01:32;;;;;;;1.67;1.53;;;19.30;52.80;;;;;;5066480;28;20424;-83
2022/04/12 11:04:27;;;;;;;3.60;2.63;;;19.10;53.10;;;;;;5068152;28;20959;-81
2022/04/12 11:07:28;;;;;;;1.80;1.70;;;19.10;54.20;;;;;;5065989;28;20460;-80
2022/04/12 11:10:22;;;;;;;6.50;2.30;;;19.00;52.60;;;;;;5066109;28;20432;-82
2022/04/12 11:13:10;;;;;;;1.63;1.40;;;18.90;52.90;;;;;;5049385;28;20576;-82
2022/04/12 11:15:56;;;;;;;3.47;2.07;;;19.20;52.80;;;;;;5075301;28;20902;-81
2022/04/12 11:18:54;;;;;;;2.93;2.57;;;19.70;52.70;;;;;;5062668;28;20435;-80
2022/04/12 11:21:57;;;;;;;3.00;2.00;;;20.00;51.10;;;;;;5075777;28;20597;-83
2022/04/12 11:24:43;;;;;;;5.70;2.13;;;20.00;50.10;;;;;;5079628;28;20505;-83
2022/04/12 11:27:27;;;;;;;2.53;2.33;;;19.70;50.60;;;;;;5077258;28;20428;-83
2022/04/12 11:30:13;;;;;;;3.00;2.33;;;19.70;50.20;;;;;;5075395;28;20517;-83
2022/04/12 11:32:57;;;;;;;2.63;2.43;;;20.00;49.00;;;;;;5079321;28;20468;-84
2022/04/12 11:35:42;;;;;;;2.27;2.10;;;20.20;49.30;;;;;;5085193;28;20421;-84
2022/04/12 11:38:27;;;;;;;2.70;2.03;;;20.80;47.60;;;;;;5073540;28;20486;-84
2022/04/12 11:41:11;;;;;;;1.90;1.80;;;21.40;46.80;;;;;;5083289;28;20490;-83
2022/04/12 11:44:01;;;;;;;2.53;2.10;;;20.80;45.70;;;;;;5068618;28;20431;-83
2022/04/12 11:46:45;;;;;;;1.70;1.60;;;21.10;46.30;;;;;;5082854;28;20433;-83
2022/04/12 11:49:32;;;;;;;2.23;2.03;;;21.80;46.90;;;;;;5067584;28;20429;-84
2022/04/12 11:52:16;;;;;;;1.90;1.70;;;22.20;46.80;;;;;;5085703;28;20464;-83
2022/04/12 11:55:01;;;;;;;2.80;2.17;;;21.70;45.90;;;;;;5078196;28;20475;-83
2022/04/12 11:57:49;;;;;;;2.23;2.00;;;22.70;46.60;;;;;;5039657;28;20908;-83
2022/04/12 12:00:33;;;;;;;2.93;2.00;;;23.70;45.20;;;;;;5028417;28;20430;-82
2022/04/12 12:03:18;;;;;;;2.00;1.80;;;22.40;45.30;;;;;;5017333;28;20450;-82
2022/04/12 12:06:03;;;;;;;2.50;1.60;;;22.30;45.00;;;;;;5035531;28;20461;-79
2022/04/12 12:08:48;;;;;;;1.73;1.60;;;23.30;45.40;;;;;;5032611;28;20428;-84
2022/04/12 12:11:38;;;;;;;11.50;2.00;;;22.50;44.10;;;;;;5025799;28;20688;-80
2022/04/12 12:14:24;;;;;;;1.80;1.70;;;22.50;46.20;;;;;;5023493;28;20507;-82
2022/04/12 12:17:10;;;;;;;1.80;1.70;;;22.00;44.60;;;;;;5028666;28;20466;-83
2022/04/12 12:19:54;;;;;;;2.13;1.70;;;22.10;44.80;;;;;;5034515;28;20429;-83
2022/04/12 12:22:43;;;;;;;4.23;2.43;;;22.10;45.70;;;;;;5036975;28;20598;-82
2022/04/12 12:25:55;;;;;;;2.13;1.93;;;22.80;43.70;;;;;;5045290;28;20945;-83
2022/04/12 12:28:41;;;;;;;2.00;1.70;;;23.40;42.90;;;;;;5035333;28;20433;-84
2022/04/12 12:31:26;;;;;;;2.80;1.70;;;23.20;42.70;;;;;;5055214;28;20511;-83
2022/04/12 12:34:38;;;;;;;8.70;2.07;;;23.00;43.30;;;;;;5059894;28;20443;-82
2022/04/12 12:37:23;;;;;;;1.63;1.53;;;22.30;43.30;;;;;;5063457;28;20435;-84
2022/04/12 12:40:20;;;;;;;1.63;1.53;;;22.40;43.10;;;;;;5096856;28;20517;-82
2022/04/12 12:43:08;;;;;;;1.90;1.73;;;22.50;42.80;;;;;;5086241;28;20416;-84
2022/04/12 12:45:52;;;;;;;2.80;1.63;;;22.20;43.80;;;;;;5048538;28;20445;-82
2022/04/12 12:48:37;;;;;;;1.70;1.53;;;22.50;44.50;;;;;;5059791;28;20488;-83
2022/04/12 12:51:22;;;;;;;3.37;1.93;;;23.30;44.00;;;;;;5077935;28;20540;-83
2022/04/12 12:54:09;;;;;;;1.60;1.43;;;24.20;42.00;;;;;;5077348;28;20559;-83
2022/04/12 12:56:53;;;;;;;2.00;1.80;;;25.50;41.30;;;;;;5080404;28;20494;-79
2022/04/12 12:59:39;;;;;;;2.47;1.80;;;24.50;40.70;;;;;;5074182;28;20468;-82
2022/04/12 13:02:33;;;;;;;1.60;1.50;;;25.00;39.60;;;;;;5070576;28;20463;-83
2022/04/12 13:05:19;;;;;;;1.83;1.73;;;23.50;40.80;;;;;;5070897;28;20939;-81
2022/04/12 13:08:05;;;;;;;2.43;2.33;;;23.20;42.10;;;;;;5081740;28;20432;-82
2022/04/12 13:10:51;;;;;;;2.90;2.10;;;23.60;41.80;;;;;;5081805;28;20447;-84
2022/04/12 13:13:35;;;;;;;2.53;2.00;;;23.90;41.60;;;;;;5071317;28;20441;-82
2022/04/12 13:16:20;;;;;;;4.20;2.17;;;24.50;42.10;;;;;;5085187;28;20435;-83
2022/04/12 13:19:05;;;;;;;3.03;1.60;;;25.00;41.10;;;;;;5015202;28;20484;-84
2022/04/12 13:21:50;;;;;;;4.03;2.30;;;24.60;40.20;;;;;;5019953;28;20471;-83
2022/04/12 13:24:35;;;;;;;1.80;1.63;;;23.70;40.90;;;;;;5028552;28;20414;-84
2022/04/12 13:27:21;;;;;;;2.60;1.83;;;23.10;42.30;;;;;;5026369;28;20521;-83
2022/04/12 13:30:07;;;;;;;2.33;1.90;;;23.80;42.10;;;;;;4996761;28;20463;-84
2022/04/12 13:32:52;;;;;;;1.80;1.70;;;24.10;41.80;;;;;;5023080;28;20443;-82
2022/04/12 13:35:36;;;;;;;1.80;1.70;;;23.60;41.60;;;;;;5020372;28;20451;-82
2022/04/12 13:38:21;;;;;;;1.50;1.40;;;23.00;42.00;;;;;;5023898;28;20539;-82
2022/04/12 13:41:06;;;;;;;1.57;1.47;;;22.90;43.20;;;;;;5022967;28;20443;-83
2022/04/12 13:43:50;;;;;;;5.40;2.50;;;22.90;42.70;;;;;;5002751;28;20500;-84
2022/04/12 13:46:37;;;;;;;3.43;1.87;;;23.50;42.90;;;;;;5017461;28;20446;-82
2022/04/12 13:49:22;;;;;;;2.73;2.03;;;22.60;42.40;;;;;;5009859;28;20506;-80
2022/04/12 13:52:06;;;;;;;1.97;1.80;;;22.90;43.40;;;;;;5022298;28;20495;-82
2022/04/12 13:54:52;;;;;;;1.80;1.70;;;22.80;42.70;;;;;;5070191;28;20452;-82
2022/04/12 13:57:38;;;;;;;3.40;2.30;;;23.10;42.90;;;;;;5051171;28;20428;-82
2022/04/12 14:00:23;;;;;;;1.70;1.60;;;23.20;43.90;;;;;;5066373;28;20540;-82
2022/04/12 14:03:08;;;;;;;1.77;1.67;;;23.00;42.20;;;;;;5054236;28;20463;-81
2022/04/12 14:05:53;;;;;;;1.80;1.70;;;23.00;42.50;;;;;;5072183;28;20478;-83
2022/04/12 14:08:37;;;;;;;2.30;2.10;;;22.70;42.70;;;;;;5076584;28;20422;-79
2022/04/12 14:11:22;;;;;;;1.67;1.57;;;22.50;42.40;;;;;;5071206;28;20781;-81
2022/04/12 14:14:07;;;;;;;1.93;1.50;;;22.30;42.80;;;;;;5055569;28;20452;-81
2022/04/12 14:16:52;;;;;;;2.07;1.90;;;22.50;43.20;;;;;;5068716;28;20437;-82
2022/04/12 14:19:36;;;;;;;4.03;1.90;;;22.40;43.00;;;;;;5077758;28;20420;-83
2022/04/12 14:22:21;;;;;;;3.77;1.97;;;22.10;42.30;;;;;;5072547;28;20483;-81
2022/04/12 14:25:07;;;;;;;3.70;1.97;;;22.60;43.10;;;;;;5065677;28;20629;-80
2022/04/12 14:27:51;;;;;;;1.80;1.70;;;23.00;43.50;;;;;;5070398;28;20975;-83